ADDS TAF Board (Experimental) INFO Settings
IDs: Format: Expanded Condensed

KPIT - Pittsburgh Intl, PA, US

Issued at 2334 UTC 04 Aug 2015
Updated at: 0219 UTC 05 Aug 2015
Time0151Z 05/03Z 05/04Z 05/05Z 05/06Z 05/07Z 05/08Z 05/09Z 05/10Z 05/11Z 05/12Z 05/13Z 05/14Z 05/15Z
Type OBS PRVL PRVL PRVL PRVL PRVL PRVL PRVL PRVL PRVL PRVL PRVL PRVL PRVL
VIS 10 >6 >6 >6 >6 >6 >6 >6 >6 >6 >6 >6 >6 >6
CIG -- -- -- -- -- -- -- -- -- -- -- -- -- --
Cover SCT SCT SCT SCT SCT SCT SCT SCT SCT SCT SCT SCT SCT SCT
FltCat VFR VFR VFR VFR VFR VFR VFR VFR VFR VFR VFR VFR VFR VFR
WX -- -- -- -- -- -- -- -- -- -- -- -- -- --
WDir 230 260 260 260 260 260 260 260 260 260 260 260 260 260
WSpd 3 7 7 7 7 7 7 7 7 7 7 7 7 7
WGst -- -- -- -- -- -- -- -- -- -- -- -- -- --
R10/28
XWnd -2 -1 -1 -1 -1 -1 -1 -1 -1 -1 -1 -1 -1 -1
HWnd -2 -7 -7 -7 -7 -7 -7 -7 -7 -7 -7 -7 -7 -7
R14/32
XWnd -3 -6 -6 -6 -6 -6 -6 -6 -6 -6 -6 -6 -6 -6
HWnd -0 -4 -4 -4 -4 -4 -4 -4 -4 -4 -4 -4 -4 -4

NOTE: TEMPO conditions in [brackets]. Keep in mind TEMPO conditions might be better (lower impact) than prevailing conditions.

Raw TAF
KPIT 042334Z 0500/0606 26007KT P6SM SCT250
  FM051600 30010G17KT P6SM SCT050
  FM060100 VRB03KT P6SM SKC


Raw METAR
KPIT 050151Z 23003KT 10SM FEW070 SCT250 22/14 A2998 RMK AO2 SLP152 T02220139
KPIT 050051Z 26004KT 10SM FEW070 BKN250 24/13 A2997 RMK AO2 SLP148 T02390133
KPIT 042351Z 27006KT 10SM FEW075 BKN250 25/12 A2996 RMK AO2 SLP145 T02500122 10283 20250 53000

METAR Board
Radar Display
Forecast Discussion

TAF Board Legend

Potential Impact
Threat None Slight Moderate High
Visibility (sm) ≥5.1 5.1>X≥3 3>X≥1 <1
Ceiling (100 ft) ≥30.1 30.1>X≥10 10>X≥5 <5
Wind Speed (kt) <10 10≤X<20 20≤X<30 ≥30
Wind Gust (kt) <15 15≤X<25 25≤X<35 ≥35
Weather No Wx Reported VCTS,-TS,-FZRA,SN TS,FZRA +TS,+FZRA,+SN